Time,TemperatureF,DewpointF,PressureIn,WindDirection,WindDirectionDegrees,WindSpeedMPH,WindSpeedGustMPH,Humidity,HourlyPrecipIn,Conditions,Clouds,dailyrainin,SoftwareType,DateUTC
2013-04-29 00:02:00,58.0,48.0,29.89,North,-999,-999.0,-999.0,68,-99.99,,,-99.99,,2013-04-29 05:02:00,
2013-04-29 00:12:00,58.0,48.0,29.89,North,-999,-999.0,-999.0,69,-99.99,,,-99.99,,2013-04-29 05:12:00,
2013-04-29 00:22:00,58.0,48.0,29.89,North,-999,-999.0,-999.0,69,-99.99,,,-99.99,,2013-04-29 05:22:00,
2013-04-29 00:32:00,58.0,48.0,29.89,North,-999,-999.0,-999.0,70,-99.99,,,-99.99,,2013-04-29 05:32:00,
2013-04-29 00:42:00,58.0,48.0,29.89,North,-999,-999.0,-999.0,71,-99.99,,,-99.99,,2013-04-29 05:42:00,
2013-04-29 00:52:00,58.0,48.0,29.89,North,-999,-999.0,-999.0,71,-99.99,,,-99.99,,2013-04-29 05:52:00,
2013-04-29 01:02:00,57.0,47.0,29.89,North,-999,-999.0,-999.0,70,-99.99,,,-99.99,,2013-04-29 06:02:00,
2013-04-29 01:11:00,57.0,48.0,29.89,North,-999,-999.0,-999.0,71,-99.99,,,-99.99,,2013-04-29 06:11:00,
2013-04-29 01:21:00,57.0,48.0,29.89,North,-999,-999.0,-999.0,71,-99.99,,,-99.99,,2013-04-29 06:21:00,
2013-04-29 01:32:00,57.0,48.0,29.89,North,-999,-999.0,-999.0,74,-99.99,,,-99.99,,2013-04-29 06:32:00,
2013-04-29 01:42:00,57.0,49.0,29.89,North,-999,-999.0,-999.0,75,-99.99,,,-99.99,,2013-04-29 06:42:00,
2013-04-29 01:52:00,57.0,49.0,29.89,North,-999,-999.0,-999.0,75,-99.99,,,-99.99,,2013-04-29 06:52:00,
2013-04-29 02:01:00,56.0,49.0,29.89,North,-999,-999.0,-999.0,76,-99.99,,,-99.99,,2013-04-29 07:01:00,
2013-04-29 02:11:00,56.0,49.0,29.89,North,-999,-999.0,-999.0,77,-99.99,,,-99.99,,2013-04-29 07:11:00,
2013-04-29 02:21:00,56.0,49.0,29.89,North,-999,-999.0,-999.0,77,-99.99,,,-99.99,,2013-04-29 07:21:00,
2013-04-29 02:32:00,56.0,49.0,29.88,North,-999,-999.0,-999.0,78,-99.99,,,-99.99,,2013-04-29 07:32:00,
2013-04-29 02:42:00,56.0,49.0,29.88,North,-999,-999.0,-999.0,79,-99.99,,,-99.99,,2013-04-29 07:42:00,
2013-04-29 02:52:00,56.0,49.0,29.88,North,-999,-999.0,-999.0,79,-99.99,,,-99.99,,2013-04-29 07:52:00,
2013-04-29 03:03:00,55.0,49.0,29.87,North,-999,-999.0,-999.0,79,-99.99,,,-99.99,,2013-04-29 08:03:00,
2013-04-29 03:11:00,55.0,49.0,29.87,North,-999,-999.0,-999.0,79,-99.99,,,-99.99,,2013-04-29 08:11:00,
2013-04-29 03:21:00,55.0,49.0,29.87,North,-999,-999.0,-999.0,79,-99.99,,,-99.99,,2013-04-29 08:21:00,
2013-04-29 03:32:00,55.0,49.0,29.87,North,-999,-999.0,-999.0,79,-99.99,,,-99.99,,2013-04-29 08:32:00,
2013-04-29 03:42:00,55.0,49.0,29.88,North,-999,-999.0,-999.0,79,-99.99,,,-99.99,,2013-04-29 08:42:00,
2013-04-29 03:51:00,55.0,49.0,29.88,North,-999,-999.0,-999.0,79,-99.99,,,-99.99,,2013-04-29 08:51:00,
2013-04-29 04:01:00,55.0,49.0,29.87,North,-999,-999.0,-999.0,79,-99.99,,,-99.99,,2013-04-29 09:01:00,
2013-04-29 04:12:00,55.0,49.0,29.87,North,-999,-999.0,-999.0,80,-99.99,,,-99.99,,2013-04-29 09:12:00,
2013-04-29 04:21:00,55.0,49.0,29.87,North,-999,-999.0,-999.0,80,-99.99,,,-99.99,,2013-04-29 09:21:00,
2013-04-29 04:33:00,55.0,49.0,29.87,North,-999,-999.0,-999.0,79,-99.99,,,-99.99,,2013-04-29 09:33:00,
2013-04-29 04:42:00,55.0,49.0,29.87,North,-999,-999.0,-999.0,79,-99.99,,,-99.99,,2013-04-29 09:42:00,
2013-04-29 04:52:00,55.0,49.0,29.87,North,-999,-999.0,-999.0,79,-99.99,,,-99.99,,2013-04-29 09:52:00,
2013-04-29 05:02:00,54.0,48.0,29.88,North,-999,-999.0,-999.0,79,-99.99,,,-99.99,,2013-04-29 10:02:00,
2013-04-29 05:12:00,54.0,48.0,29.88,North,-999,-999.0,-999.0,80,-99.99,,,-99.99,,2013-04-29 10:12:00,
2013-04-29 05:23:00,54.0,48.0,29.88,North,-999,-999.0,-999.0,80,-99.99,,,-99.99,,2013-04-29 10:23:00,
2013-04-29 05:32:00,54.0,48.0,29.88,North,-999,-999.0,-999.0,80,-99.99,,,-99.99,,2013-04-29 10:32:00,
2013-04-29 05:42:00,54.0,48.0,29.88,North,-999,-999.0,-999.0,80,-99.99,,,-99.99,,2013-04-29 10:42:00,
2013-04-29 05:52:00,54.0,48.0,29.88,North,-999,-999.0,-999.0,80,-99.99,,,-99.99,,2013-04-29 10:52:00,
2013-04-29 06:03:00,54.0,48.0,29.88,North,-999,-999.0,-999.0,80,-99.99,,,-99.99,,2013-04-29 11:03:00,
2013-04-29 06:12:00,54.0,48.0,29.89,North,-999,-999.0,-999.0,80,-99.99,,,-99.99,,2013-04-29 11:12:00,
2013-04-29 06:21:00,54.0,48.0,29.89,North,-999,-999.0,-999.0,80,-99.99,,,-99.99,,2013-04-29 11:21:00,
2013-04-29 06:32:00,54.0,48.0,29.89,North,-999,-999.0,-999.0,80,-99.99,,,-99.99,,2013-04-29 11:32:00,
2013-04-29 06:42:00,53.0,48.0,29.89,North,-999,-999.0,-999.0,81,-99.99,,,-99.99,,2013-04-29 11:42:00,
2013-04-29 06:52:00,53.0,48.0,29.89,North,-999,-999.0,-999.0,81,-99.99,,,-99.99,,2013-04-29 11:52:00,
2013-04-29 07:01:00,54.0,48.0,29.90,North,-999,-999.0,-999.0,81,-99.99,,,-99.99,,2013-04-29 12:01:00,
2013-04-29 07:12:00,54.0,48.0,29.90,North,-999,-999.0,-999.0,81,-99.99,,,-99.99,,2013-04-29 12:12:00,
2013-04-29 07:22:00,54.0,48.0,29.90,North,-999,-999.0,-999.0,81,-99.99,,,-99.99,,2013-04-29 12:22:00,
2013-04-29 07:32:00,55.0,48.0,29.90,North,-999,-999.0,-999.0,79,-99.99,,,-99.99,,2013-04-29 12:32:00,
2013-04-29 07:42:00,56.0,49.0,29.90,North,-999,-999.0,-999.0,78,-99.99,,,-99.99,,2013-04-29 12:42:00,
2013-04-29 07:52:00,56.0,49.0,29.90,North,-999,-999.0,-999.0,78,-99.99,,,-99.99,,2013-04-29 12:52:00,
2013-04-29 08:00:00,63.0,52.0,29.91,North,-999,-999.0,-999.0,68,-99.99,,,-99.99,,2013-04-29 13:00:00,
2013-04-29 08:01:00,56.0,49.0,29.90,North,-999,-999.0,-999.0,76,-99.99,,,-99.99,,2013-04-29 13:01:00,
2013-04-29 08:11:00,59.0,50.0,29.90,North,-999,-999.0,-999.0,73,-99.99,,,-99.99,,2013-04-29 13:11:00,
2013-04-29 08:21:00,59.0,50.0,29.90,North,-999,-999.0,-999.0,73,-99.99,,,-99.99,,2013-04-29 13:21:00,
2013-04-29 08:31:00,62.0,51.0,29.90,North,-999,-999.0,-999.0,69,-99.99,,,-99.99,,2013-04-29 13:31:00,
2013-04-29 08:42:00,63.0,52.0,29.91,North,-999,-999.0,-999.0,68,-99.99,,,-99.99,,2013-04-29 13:42:00,
2013-04-29 08:52:00,63.0,52.0,29.91,North,-999,-999.0,-999.0,68,-99.99,,,-99.99,,2013-04-29 13:52:00,
2013-04-29 09:00:00,69.0,55.0,29.90,North,-999,-999.0,-999.0,63,-99.99,,,-99.99,,2013-04-29 14:00:00,
2013-04-29 09:11:00,66.0,53.0,29.90,North,-999,-999.0,-999.0,63,-99.99,,,-99.99,,2013-04-29 14:11:00,
2013-04-29 09:21:00,66.0,53.0,29.90,North,-999,-999.0,-999.0,63,-99.99,,,-99.99,,2013-04-29 14:21:00,
2013-04-29 09:32:00,68.0,55.0,29.90,North,-999,-999.0,-999.0,63,-99.99,,,-99.99,,2013-04-29 14:32:00,
2013-04-29 09:42:00,69.0,55.0,29.90,North,-999,-999.0,-999.0,63,-99.99,,,-99.99,,2013-04-29 14:42:00,
2013-04-29 09:52:00,69.0,55.0,29.90,North,-999,-999.0,-999.0,63,-99.99,,,-99.99,,2013-04-29 14:52:00,
2013-04-29 10:12:00,71.0,57.0,29.90,North,-999,-999.0,-999.0,62,-99.99,,,-99.99,,2013-04-29 15:12:00,
2013-04-29 10:21:00,71.0,57.0,29.90,North,-999,-999.0,-999.0,62,-99.99,,,-99.99,,2013-04-29 15:21:00,
2013-04-29 10:33:00,72.0,58.0,29.90,North,-999,-999.0,-999.0,62,-99.99,,,-99.99,,2013-04-29 15:33:00,
2013-04-29 10:42:00,73.0,59.0,29.90,North,-999,-999.0,-999.0,63,-99.99,,,-99.99,,2013-04-29 15:42:00,
2013-04-29 10:52:00,73.0,59.0,29.90,North,-999,-999.0,-999.0,63,-99.99,,,-99.99,,2013-04-29 15:52:00,
2013-04-29 11:00:00,76.0,59.0,29.89,North,-999,-999.0,-999.0,56,-99.99,,,-99.99,,2013-04-29 16:00:00,
2013-04-29 11:03:00,75.0,59.0,29.89,North,-999,-999.0,-999.0,57,-99.99,,,-99.99,,2013-04-29 16:03:00,
2013-04-29 11:12:00,75.0,59.0,29.90,North,-999,-999.0,-999.0,57,-99.99,,,-99.99,,2013-04-29 16:12:00,
2013-04-29 11:23:00,75.0,59.0,29.90,North,-999,-999.0,-999.0,57,-99.99,,,-99.99,,2013-04-29 16:23:00,
2013-04-29 11:33:00,76.0,59.0,29.90,North,-999,-999.0,-999.0,56,-99.99,,,-99.99,,2013-04-29 16:33:00,
2013-04-29 11:42:00,76.0,59.0,29.89,North,-999,-999.0,-999.0,56,-99.99,,,-99.99,,2013-04-29 16:42:00,
2013-04-29 11:52:00,76.0,59.0,29.89,North,-999,-999.0,-999.0,56,-99.99,,,-99.99,,2013-04-29 16:52:00,
2013-04-29 12:00:00,78.0,59.0,29.87,North,-999,-999.0,-999.0,53,-99.99,,,-99.99,,2013-04-29 17:00:00,
2013-04-29 12:12:00,76.0,59.0,29.89,North,-999,-999.0,-999.0,55,-99.99,,,-99.99,,2013-04-29 17:12:00,
2013-04-29 12:22:00,76.0,59.0,29.89,North,-999,-999.0,-999.0,55,-99.99,,,-99.99,,2013-04-29 17:22:00,
2013-04-29 12:32:00,77.0,59.0,29.88,North,-999,-999.0,-999.0,53,-99.99,,,-99.99,,2013-04-29 17:32:00,
2013-04-29 12:42:00,78.0,59.0,29.87,North,-999,-999.0,-999.0,53,-99.99,,,-99.99,,2013-04-29 17:42:00,
2013-04-29 12:50:00,80.0,59.0,29.85,North,-999,-999.0,-999.0,48,-99.99,,,-99.99,,2013-04-29 17:50:00,
2013-04-29 12:52:00,78.0,59.0,29.87,North,-999,-999.0,-999.0,53,-99.99,,,-99.99,,2013-04-29 17:52:00,
2013-04-29 13:13:00,79.0,59.0,29.86,North,-999,-999.0,-999.0,51,-99.99,,,-99.99,,2013-04-29 18:13:00,
2013-04-29 13:22:00,79.0,59.0,29.86,North,-999,-999.0,-999.0,51,-99.99,,,-99.99,,2013-04-29 18:22:00,
2013-04-29 13:30:00,82.0,61.0,29.83,North,-999,-999.0,-999.0,49,-99.99,,,-99.99,,2013-04-29 18:30:00,
2013-04-29 13:32:00,80.0,59.0,29.85,North,-999,-999.0,-999.0,48,-99.99,,,-99.99,,2013-04-29 18:32:00,
2013-04-29 13:42:00,80.0,59.0,29.85,North,-999,-999.0,-999.0,48,-99.99,,,-99.99,,2013-04-29 18:42:00,
2013-04-29 14:00:00,83.0,61.0,29.82,North,-999,-999.0,-999.0,49,-99.99,,,-99.99,,2013-04-29 19:00:00,
2013-04-29 14:11:00,82.0,61.0,29.83,North,-999,-999.0,-999.0,49,-99.99,,,-99.99,,2013-04-29 19:11:00,
2013-04-29 14:21:00,82.0,61.0,29.83,North,-999,-999.0,-999.0,49,-99.99,,,-99.99,,2013-04-29 19:21:00,
2013-04-29 14:42:00,83.0,61.0,29.82,North,-999,-999.0,-999.0,49,-99.99,,,-99.99,,2013-04-29 19:42:00,
2013-04-29 14:52:00,83.0,61.0,29.82,North,-999,-999.0,-999.0,49,-99.99,,,-99.99,,2013-04-29 19:52:00,
2013-04-29 15:12:00,84.0,59.0,29.82,North,-999,-999.0,-999.0,44,-99.99,,,-99.99,,2013-04-29 20:12:00,
2013-04-29 15:21:00,84.0,59.0,29.82,North,-999,-999.0,-999.0,44,-99.99,,,-99.99,,2013-04-29 20:21:00,
2013-04-29 15:32:00,83.0,58.0,29.80,North,-999,-999.0,-999.0,42,-99.99,,,-99.99,,2013-04-29 20:32:00,
2013-04-29 15:42:00,84.0,60.0,29.80,North,-999,-999.0,-999.0,45,-99.99,,,-99.99,,2013-04-29 20:42:00,
2013-04-29 15:52:00,84.0,60.0,29.80,North,-999,-999.0,-999.0,45,-99.99,,,-99.99,,2013-04-29 20:52:00,
2013-04-29 16:01:00,85.0,56.0,29.79,North,-999,-999.0,-999.0,38,-99.99,,,-99.99,,2013-04-29 21:01:00,
2013-04-29 16:11:00,85.0,55.0,29.79,North,-999,-999.0,-999.0,37,-99.99,,,-99.99,,2013-04-29 21:11:00,
2013-04-29 16:21:00,85.0,55.0,29.79,North,-999,-999.0,-999.0,37,-99.99,,,-99.99,,2013-04-29 21:21:00,
2013-04-29 16:33:00,85.0,57.0,29.78,North,-999,-999.0,-999.0,39,-99.99,,,-99.99,,2013-04-29 21:33:00,
2013-04-29 16:42:00,84.0,57.0,29.78,North,-999,-999.0,-999.0,39,-99.99,,,-99.99,,2013-04-29 21:42:00,
2013-04-29 16:53:00,84.0,57.0,29.78,North,-999,-999.0,-999.0,39,-99.99,,,-99.99,,2013-04-29 21:53:00,
2013-04-29 17:02:00,84.0,54.0,29.78,North,-999,-999.0,-999.0,36,-99.99,,,-99.99,,2013-04-29 22:02:00,
2013-04-29 17:13:00,84.0,55.0,29.77,North,-999,-999.0,-999.0,37,-99.99,,,-99.99,,2013-04-29 22:13:00,
2013-04-29 17:23:00,84.0,55.0,29.77,North,-999,-999.0,-999.0,37,-99.99,,,-99.99,,2013-04-29 22:23:00,
2013-04-29 17:32:00,85.0,55.0,29.77,North,-999,-999.0,-999.0,36,-99.99,,,-99.99,,2013-04-29 22:32:00,
2013-04-29 17:42:00,85.0,53.0,29.77,North,-999,-999.0,-999.0,34,-99.99,,,-99.99,,2013-04-29 22:42:00,
2013-04-29 17:52:00,85.0,53.0,29.77,North,-999,-999.0,-999.0,34,-99.99,,,-99.99,,2013-04-29 22:52:00,
2013-04-29 18:02:00,84.0,52.0,29.77,North,-999,-999.0,-999.0,33,-99.99,,,-99.99,,2013-04-29 23:02:00,
2013-04-29 18:11:00,85.0,51.0,29.77,North,-999,-999.0,-999.0,32,-99.99,,,-99.99,,2013-04-29 23:11:00,
2013-04-29 18:22:00,85.0,51.0,29.77,North,-999,-999.0,-999.0,32,-99.99,,,-99.99,,2013-04-29 23:22:00,
2013-04-29 18:32:00,84.0,53.0,29.77,North,-999,-999.0,-999.0,34,-99.99,,,-99.99,,2013-04-29 23:32:00,
2013-04-29 18:42:00,84.0,51.0,29.77,North,-999,-999.0,-999.0,33,-99.99,,,-99.99,,2013-04-29 23:42:00,
2013-04-29 18:52:00,84.0,51.0,29.77,North,-999,-999.0,-999.0,33,-99.99,,,-99.99,,2013-04-29 23:52:00,
2013-04-29 19:01:00,83.0,50.0,29.76,North,-999,-999.0,-999.0,32,-99.99,,,-99.99,,2013-04-30 00:01:00,
2013-04-29 19:11:00,83.0,50.0,29.76,North,-999,-999.0,-999.0,32,-99.99,,,-99.99,,2013-04-30 00:11:00,
2013-04-29 19:21:00,83.0,50.0,29.76,North,-999,-999.0,-999.0,32,-99.99,,,-99.99,,2013-04-30 00:21:00,
2013-04-29 19:30:00,79.0,57.0,29.77,North,-999,-999.0,-999.0,47,-99.99,,,-99.99,,2013-04-30 00:30:00,
2013-04-29 19:32:00,82.0,50.0,29.76,North,-999,-999.0,-999.0,32,-99.99,,,-99.99,,2013-04-30 00:32:00,
2013-04-29 19:42:00,81.0,56.0,29.76,North,-999,-999.0,-999.0,42,-99.99,,,-99.99,,2013-04-30 00:42:00,
2013-04-29 19:51:00,81.0,56.0,29.76,North,-999,-999.0,-999.0,42,-99.99,,,-99.99,,2013-04-30 00:51:00,
2013-04-29 20:00:00,76.0,56.0,29.78,North,-999,-999.0,-999.0,49,-99.99,,,-99.99,,2013-04-30 01:00:00,
2013-04-29 20:02:00,80.0,57.0,29.77,North,-999,-999.0,-999.0,46,-99.99,,,-99.99,,2013-04-30 01:02:00,
2013-04-29 20:11:00,80.0,57.0,29.77,North,-999,-999.0,-999.0,46,-99.99,,,-99.99,,2013-04-30 01:11:00,
2013-04-29 20:21:00,79.0,57.0,29.77,North,-999,-999.0,-999.0,47,-99.99,,,-99.99,,2013-04-30 01:21:00,
2013-04-29 20:42:00,76.0,56.0,29.78,North,-999,-999.0,-999.0,49,-99.99,,,-99.99,,2013-04-30 01:42:00,
2013-04-29 20:52:00,76.0,56.0,29.78,North,-999,-999.0,-999.0,49,-99.99,,,-99.99,,2013-04-30 01:52:00,
2013-04-29 21:20:00,72.0,56.0,29.80,North,-999,-999.0,-999.0,57,-99.99,,,-99.99,,2013-04-30 02:20:00,
2013-04-29 21:31:00,73.0,55.0,29.79,North,-999,-999.0,-999.0,53,-99.99,,,-99.99,,2013-04-30 02:31:00,
2013-04-29 21:41:00,73.0,55.0,29.79,North,-999,-999.0,-999.0,53,-99.99,,,-99.99,,2013-04-30 02:41:00,
2013-04-29 21:51:00,73.0,56.0,29.79,North,-999,-999.0,-999.0,55,-99.99,,,-99.99,,2013-04-30 02:51:00,
2013-04-29 22:01:00,72.0,56.0,29.80,North,-999,-999.0,-999.0,57,-99.99,,,-99.99,,2013-04-30 03:01:00,
2013-04-29 22:11:00,72.0,56.0,29.80,North,-999,-999.0,-999.0,57,-99.99,,,-99.99,,2013-04-30 03:11:00,
2013-04-29 23:00:00,71.0,56.0,29.81,North,-999,-999.0,-999.0,59,-99.99,,,-99.99,,2013-04-30 04:00:00,
2013-04-29 23:52:00,71.0,56.0,29.81,North,-999,-999.0,-999.0,59,-99.99,,,-99.99,,2013-04-30 04:52:00,